Time,TemperatureF,DewpointF,PressureIn,WindDirection,WindDirectionDegrees,WindSpeedMPH,WindSpeedGustMPH,Humidity,HourlyPrecipIn,Conditions,Clouds,dailyrainin,SolarRadiationWatts/m^2,SoftwareType,DateUTC
2013-05-25 00:01:00,44.9,36.8,30.33,NNE,19,3.0,3.0,73,0.00,,,0.00,0,Wunderground v.1.15,2013-05-25 04:01:00,
2013-05-25 00:02:00,44.9,36.8,30.33,NW,309,2.0,4.0,73,0.00,,,0.00,0,Wunderground v.1.15,2013-05-25 04:02:00,
2013-05-25 00:04:00,44.9,36.8,30.33,WNW,298,2.0,4.0,73,0.00,,,0.00,0,Wunderground v.1.15,2013-05-25 04:04:00,
2013-05-25 00:09:00,44.8,36.0,30.33,North,360,3.0,5.0,71,0.00,,,0.00,0,Wunderground v.1.15,2013-05-25 04:09:00,
2013-05-25 00:11:00,44.8,36.3,30.33,North,360,3.0,3.0,72,0.00,,,0.00,0,Wunderground v.1.15,2013-05-25 04:11:00,
2013-05-25 00:16:00,44.7,36.6,30.34,NNW,348,2.0,3.0,73,0.00,,,0.00,0,Wunderground v.1.15,2013-05-25 04:16:00,
2013-05-25 00:18:00,44.7,36.6,30.34,NNW,348,1.0,3.0,73,0.00,,,0.00,0,Wunderground v.1.15,2013-05-25 04:18:00,
2013-05-25 00:23:00,44.6,36.5,30.34,SE,143,1.0,2.0,73,0.00,,,0.00,0,Wunderground v.1.15,2013-05-25 04:23:00,
2013-05-25 00:29:00,44.6,36.1,30.34,North,9,2.0,7.0,72,0.00,,,0.00,0,Wunderground v.1.15,2013-05-25 04:29:00,
2013-05-25 00:34:00,44.5,35.7,30.34,NNE,16,5.0,7.0,71,0.00,,,0.00,0,Wunderground v.1.15,2013-05-25 04:34:00,
2013-05-25 00:39:00,44.4,35.2,30.34,NW,323,5.0,7.0,70,0.00,,,0.00,0,Wunderground v.1.15,2013-05-25 04:39:00,
2013-05-25 00:45:00,44.4,35.6,30.34,WNW,288,2.0,4.0,71,0.00,,,0.00,0,Wunderground v.1.15,2013-05-25 04:45:00,
2013-05-25 00:51:00,44.3,36.5,30.34,NE,55,2.0,4.0,74,0.00,,,0.00,0,Wunderground v.1.15,2013-05-25 04:51:00,
2013-05-25 00:56:00,44.1,36.0,30.33,East,88,2.0,5.0,73,0.00,,,0.00,0,Wunderground v.1.15,2013-05-25 04:56:00,
2013-05-25 01:02:00,44.0,35.6,30.33,ENE,68,2.0,2.0,72,0.00,,,0.00,0,Wunderground v.1.15,2013-05-25 05:02:00,
2013-05-25 01:07:00,43.8,35.0,30.34,NNE,30,3.0,9.0,71,0.00,,,0.00,0,Wunderground v.1.15,2013-05-25 05:07:00,
2013-05-25 01:12:00,43.8,35.0,30.33,NE,40,4.0,6.0,71,0.00,,,0.00,0,Wunderground v.1.15,2013-05-25 05:12:00,
2013-05-25 01:18:00,43.7,34.9,30.33,North,5,5.0,10.0,71,0.00,,,0.00,0,Wunderground v.1.15,2013-05-25 05:18:00,
2013-05-25 01:23:00,43.7,35.6,30.33,NNE,22,5.0,7.0,73,0.00,,,0.00,0,Wunderground v.1.15,2013-05-25 05:23:00,
2013-05-25 01:28:00,43.6,35.5,30.33,East,81,4.0,10.0,73,0.00,,,0.00,0,Wunderground v.1.15,2013-05-25 05:28:00,
2013-05-25 01:33:00,43.5,35.8,30.33,ENE,67,4.0,5.0,74,0.00,,,0.00,0,Wunderground v.1.15,2013-05-25 05:33:00,
2013-05-25 01:39:00,43.5,35.8,30.33,ENE,61,4.0,5.0,74,0.00,,,0.00,0,Wunderground v.1.15,2013-05-25 05:39:00,
2013-05-25 01:44:00,43.4,35.7,30.33,NE,42,3.0,4.0,74,0.00,,,0.00,0,Wunderground v.1.15,2013-05-25 05:44:00,
2013-05-25 01:49:00,43.4,35.3,30.33,North,349,2.0,6.0,73,0.00,,,0.00,0,Wunderground v.1.15,2013-05-25 05:49:00,
2013-05-25 01:55:00,43.3,35.2,30.33,ESE,119,2.0,2.0,73,0.00,,,0.00,0,Wunderground v.1.15,2013-05-25 05:55:00,
2013-05-25 02:00:00,43.2,35.8,30.33,ESE,111,2.0,2.0,75,0.00,,,0.00,0,Wunderground v.1.15,2013-05-25 06:00:00,
2013-05-25 02:06:00,43.3,35.6,30.33,WSW,251,1.0,4.0,74,0.00,,,0.00,0,Wunderground v.1.15,2013-05-25 06:06:00,
2013-05-25 02:11:00,43.2,35.1,30.33,ESE,111,2.0,5.0,73,0.00,,,0.00,0,Wunderground v.1.15,2013-05-25 06:11:00,
2013-05-25 02:16:00,43.1,35.4,30.33,East,98,3.0,5.0,74,0.00,,,0.00,0,Wunderground v.1.15,2013-05-25 06:16:00,
2013-05-25 02:21:00,43.0,35.6,30.33,ESE,111,4.0,5.0,75,0.00,,,0.00,0,Wunderground v.1.15,2013-05-25 06:21:00,
2013-05-25 02:27:00,42.9,35.2,30.33,East,97,4.0,9.0,74,0.00,,,0.00,0,Wunderground v.1.15,2013-05-25 06:27:00,
2013-05-25 02:32:00,42.8,35.4,30.33,South,173,3.0,4.0,75,0.00,,,0.00,0,Wunderground v.1.15,2013-05-25 06:32:00,
2013-05-25 02:38:00,42.7,35.7,30.33,ESE,117,3.0,8.0,76,0.00,,,0.00,0,Wunderground v.1.15,2013-05-25 06:38:00,
2013-05-25 02:43:00,42.5,34.8,30.33,East,88,3.0,6.0,74,0.00,,,0.00,0,Wunderground v.1.15,2013-05-25 06:43:00,
2013-05-25 02:48:00,42.3,34.6,30.33,SSW,204,3.0,7.0,74,0.00,,,0.00,0,Wunderground v.1.15,2013-05-25 06:48:00,
2013-05-25 02:53:00,42.1,34.7,30.33,North,9,4.0,9.0,75,0.00,,,0.00,0,Wunderground v.1.15,2013-05-25 06:53:00,
2013-05-25 02:58:00,42.1,34.1,30.34,NE,38,5.0,9.0,73,0.00,,,0.00,0,Wunderground v.1.15,2013-05-25 06:58:00,
2013-05-25 03:04:00,41.8,33.8,30.33,ENE,61,5.0,6.0,73,0.00,,,0.00,0,Wunderground v.1.15,2013-05-25 07:04:00,
2013-05-25 03:10:00,41.6,33.9,30.33,SSE,155,2.0,2.0,74,0.00,,,0.00,0,Wunderground v.1.15,2013-05-25 07:10:00,
2013-05-25 03:15:00,41.5,33.8,30.33,West,263,3.0,9.0,74,0.00,,,0.00,0,Wunderground v.1.15,2013-05-25 07:15:00,
2013-05-25 03:20:00,41.3,33.6,30.33,West,281,6.0,6.0,74,0.00,,,0.00,0,Wunderground v.1.15,2013-05-25 07:20:00,
2013-05-25 03:26:00,41.3,34.0,30.33,SW,226,6.0,11.0,75,0.00,,,0.00,0,Wunderground v.1.15,2013-05-25 07:26:00,
2013-05-25 03:31:00,41.3,33.6,30.34,WSW,248,6.0,12.0,74,0.00,,,0.00,0,Wunderground v.1.15,2013-05-25 07:31:00,
2013-05-25 03:36:00,41.2,33.5,30.34,SW,230,6.0,12.0,74,0.00,,,0.00,0,Wunderground v.1.15,2013-05-25 07:36:00,
2013-05-25 03:41:00,41.1,33.8,30.34,West,262,5.0,10.0,75,0.00,,,0.00,0,Wunderground v.1.15,2013-05-25 07:41:00,
2013-05-25 03:46:00,41.1,33.8,30.34,SW,217,7.0,11.0,75,0.00,,,0.00,0,Wunderground v.1.15,2013-05-25 07:46:00,
2013-05-25 03:52:00,41.1,34.1,30.34,West,262,4.0,6.0,76,0.00,,,0.00,0,Wunderground v.1.15,2013-05-25 07:52:00,
2013-05-25 03:57:00,41.0,34.3,30.34,WSW,243,2.0,6.0,77,0.00,,,0.00,0,Wunderground v.1.15,2013-05-25 07:57:00,
2013-05-25 04:03:00,40.8,34.5,30.34,WSW,241,1.0,1.0,78,0.00,,,0.00,0,Wunderground v.1.15,2013-05-25 08:03:00,
2013-05-25 04:08:00,40.7,35.0,30.34,WSW,246,1.0,2.0,80,0.00,,,0.00,0,Wunderground v.1.15,2013-05-25 08:08:00,
2013-05-25 04:13:00,40.4,34.7,30.34,NW,306,1.0,3.0,80,0.00,,,0.00,0,Wunderground v.1.15,2013-05-25 08:13:00,
2013-05-25 04:19:00,40.3,34.6,30.34,NNW,338,3.0,8.0,80,0.00,,,0.00,0,Wunderground v.1.15,2013-05-25 08:19:00,
2013-05-25 04:24:00,40.5,34.5,30.35,NW,306,5.0,7.0,79,0.00,,,0.00,0,Wunderground v.1.15,2013-05-25 08:24:00,
2013-05-25 04:29:00,40.5,34.5,30.35,NNW,348,5.0,8.0,79,0.00,,,0.00,0,Wunderground v.1.15,2013-05-25 08:29:00,
2013-05-25 04:35:00,40.7,34.4,30.34,West,275,4.0,10.0,78,0.00,,,0.00,0,Wunderground v.1.15,2013-05-25 08:35:00,
2013-05-25 04:40:00,40.7,34.7,30.34,WNW,296,2.0,2.0,79,0.00,,,0.00,0,Wunderground v.1.15,2013-05-25 08:40:00,
2013-05-25 04:45:00,40.6,34.9,30.34,SSE,155,1.0,2.0,80,0.00,,,0.00,0,Wunderground v.1.15,2013-05-25 08:45:00,
2013-05-25 04:50:00,40.4,34.7,30.34,West,262,2.0,2.0,80,0.00,,,0.00,0,Wunderground v.1.15,2013-05-25 08:50:00,
2013-05-25 04:56:00,40.3,34.6,30.34,WNW,286,5.0,13.0,80,0.00,,,0.00,0,Wunderground v.1.15,2013-05-25 08:56:00,
2013-05-25 05:01:00,40.5,34.8,30.34,West,273,6.0,6.0,80,0.00,,,0.00,0,Wunderground v.1.15,2013-05-25 09:01:00,
2013-05-25 05:07:00,40.4,34.7,30.34,West,275,4.0,9.0,80,0.00,,,0.00,0,Wunderground v.1.15,2013-05-25 09:07:00,
2013-05-25 05:12:00,40.4,34.7,30.34,SW,217,5.0,6.0,80,0.00,,,0.00,0,Wunderground v.1.15,2013-05-25 09:12:00,
2013-05-25 05:17:00,40.3,34.9,30.34,West,275,4.0,6.0,81,0.00,,,0.00,0,Wunderground v.1.15,2013-05-25 09:17:00,
2013-05-25 05:23:00,40.2,34.5,30.34,NW,306,5.0,7.0,80,0.00,,,0.00,0,Wunderground v.1.15,2013-05-25 09:23:00,
2013-05-25 05:28:00,40.2,34.5,30.34,West,269,6.0,8.0,80,0.00,,,0.00,0,Wunderground v.1.15,2013-05-25 09:28:00,
2013-05-25 05:33:00,40.0,34.6,30.34,WSW,243,7.0,10.0,81,0.00,,,0.00,0,Wunderground v.1.15,2013-05-25 09:33:00,
2013-05-25 05:38:00,40.0,34.3,30.34,WSW,255,8.0,12.0,80,0.00,,,0.00,0,Wunderground v.1.15,2013-05-25 09:38:00,
2013-05-25 05:44:00,40.0,34.6,30.34,West,265,5.0,8.0,81,0.00,,,0.00,0,Wunderground v.1.15,2013-05-25 09:44:00,
2013-05-25 05:49:00,39.8,34.8,30.35,WNW,296,3.0,8.0,82,0.00,,,0.00,0,Wunderground v.1.15,2013-05-25 09:49:00,
2013-05-25 05:54:00,39.5,35.1,30.35,WNW,300,3.0,8.0,84,0.00,,,0.00,5,Wunderground v.1.15,2013-05-25 09:54:00,
2013-05-25 06:00:00,39.4,35.0,30.35,North,360,5.0,5.0,84,0.00,,,0.00,9,Wunderground v.1.15,2013-05-25 10:00:00,
2013-05-25 06:06:00,39.2,35.1,30.35,SW,214,4.0,7.0,85,0.00,,,0.00,14,Wunderground v.1.15,2013-05-25 10:06:00,
2013-05-25 06:11:00,39.1,35.0,30.35,North,360,4.0,4.0,85,0.00,,,0.00,21,Wunderground v.1.15,2013-05-25 10:11:00,
2013-05-25 06:16:00,39.2,35.1,30.35,WSW,243,4.0,4.0,85,0.00,,,0.00,28,Wunderground v.1.15,2013-05-25 10:16:00,
2013-05-25 06:21:00,39.3,35.2,30.36,SW,236,3.0,3.0,85,0.00,,,0.00,35,Wunderground v.1.15,2013-05-25 10:21:00,
2013-05-25 06:27:00,39.5,35.4,30.36,South,187,3.0,11.0,85,0.00,,,0.00,42,Wunderground v.1.15,2013-05-25 10:27:00,
2013-05-25 06:32:00,39.6,35.2,30.35,South,171,2.0,8.0,84,0.00,,,0.00,42,Wunderground v.1.15,2013-05-25 10:32:00,
2013-05-25 06:37:00,39.7,35.6,30.36,WSW,238,3.0,8.0,85,0.00,,,0.00,42,Wunderground v.1.15,2013-05-25 10:37:00,
2013-05-25 06:43:00,39.8,35.7,30.37,SSW,205,3.0,6.0,85,0.00,,,0.00,47,Wunderground v.1.15,2013-05-25 10:43:00,
2013-05-25 06:48:00,39.8,35.7,30.37,SSW,203,1.0,6.0,85,0.00,,,0.00,58,Wunderground v.1.15,2013-05-25 10:48:00,
2013-05-25 06:53:00,39.9,35.8,30.37,SSW,205,1.0,3.0,85,0.00,,,0.00,56,Wunderground v.1.15,2013-05-25 10:53:00,
2013-05-25 06:58:00,40.0,35.3,30.37,SW,219,2.0,5.0,83,0.00,,,0.00,54,Wunderground v.1.15,2013-05-25 10:58:00,
2013-05-25 07:04:00,40.2,35.4,30.37,SSE,162,1.0,3.0,83,0.00,,,0.00,58,Wunderground v.1.15,2013-05-25 11:04:00,
2013-05-25 07:09:00,40.3,35.5,30.37,SSW,209,1.0,3.0,83,0.00,,,0.00,72,Wunderground v.1.15,2013-05-25 11:09:00,
2013-05-25 07:15:00,40.4,36.2,30.37,South,177,3.0,7.0,85,0.00,,,0.00,98,Wunderground v.1.15,2013-05-25 11:15:00,
2013-05-25 07:20:00,40.6,35.8,30.37,NNE,29,3.0,3.0,83,0.00,,,0.00,114,Wunderground v.1.15,2013-05-25 11:20:00,
2013-05-25 07:25:00,41.0,35.9,30.37,NE,55,3.0,11.0,82,0.00,,,0.00,135,Wunderground v.1.15,2013-05-25 11:25:00,
2013-05-25 07:31:00,41.2,35.8,30.37,NE,37,4.0,4.0,81,0.00,,,0.00,146,Wunderground v.1.15,2013-05-25 11:31:00,
2013-05-25 07:36:00,41.4,36.0,30.37,East,93,3.0,4.0,81,0.00,,,0.00,104,Wunderground v.1.15,2013-05-25 11:36:00,
2013-05-25 07:41:00,41.6,35.9,30.37,ESE,118,2.0,3.0,80,0.00,,,0.00,91,Wunderground v.1.15,2013-05-25 11:41:00,
2013-05-25 07:47:00,41.7,36.3,30.37,WSW,256,4.0,10.0,81,0.00,,,0.00,104,Wunderground v.1.15,2013-05-25 11:47:00,
2013-05-25 07:52:00,41.9,36.5,30.36,West,274,4.0,4.0,81,0.00,,,0.00,125,Wunderground v.1.15,2013-05-25 11:52:00,
2013-05-25 07:57:00,42.1,36.7,30.36,SSE,148,4.0,5.0,81,0.00,,,0.00,229,Wunderground v.1.15,2013-05-25 11:57:00,
2013-05-25 08:03:00,42.3,35.9,30.37,SSE,147,6.0,11.0,78,0.00,,,0.00,167,Wunderground v.1.15,2013-05-25 12:03:00,
2013-05-25 08:09:00,42.4,36.0,30.36,North,360,6.0,11.0,78,0.00,,,0.00,179,Wunderground v.1.15,2013-05-25 12:09:00,
2013-05-25 08:14:00,42.6,36.5,30.36,NNE,15,3.0,11.0,79,0.00,,,0.00,367,Wunderground v.1.15,2013-05-25 12:14:00,
2013-05-25 08:19:00,43.0,36.9,30.36,North,360,3.0,11.0,79,0.00,,,0.00,390,Wunderground v.1.15,2013-05-25 12:19:00,
2013-05-25 08:24:00,43.4,38.0,30.36,NW,311,3.0,8.0,81,0.00,,,0.00,250,Wunderground v.1.15,2013-05-25 12:24:00,
2013-05-25 08:30:00,44.2,38.1,30.36,South,179,3.0,3.0,79,0.00,,,0.00,206,Wunderground v.1.15,2013-05-25 12:30:00,
2013-05-25 08:35:00,44.7,37.3,30.36,North,9,4.0,7.0,75,0.00,,,0.00,529,Wunderground v.1.15,2013-05-25 12:35:00,
2013-05-25 08:40:00,45.2,38.1,30.36,SSE,164,4.0,4.0,76,0.00,,,0.00,439,Wunderground v.1.15,2013-05-25 12:40:00,
2013-05-25 08:45:00,45.4,37.9,30.35,NW,309,4.0,8.0,75,0.00,,,0.00,308,Wunderground v.1.15,2013-05-25 12:45:00,
2013-05-25 08:51:00,45.4,37.9,30.35,North,355,4.0,7.0,75,0.00,,,0.00,390,Wunderground v.1.15,2013-05-25 12:51:00,
2013-05-25 08:56:00,46.0,39.2,30.35,South,178,3.0,7.0,77,0.00,,,0.00,253,Wunderground v.1.15,2013-05-25 12:56:00,
2013-05-25 09:02:00,46.5,38.3,30.35,NW,308,7.0,16.0,73,0.00,,,0.00,691,Wunderground v.1.15,2013-05-25 13:02:00,
2013-05-25 09:07:00,46.8,38.6,30.35,South,180,8.0,16.0,73,0.00,,,0.00,691,Wunderground v.1.15,2013-05-25 13:07:00,
2013-05-25 09:12:00,47.7,39.8,30.35,East,88,4.0,7.0,74,0.00,,,0.00,686,Wunderground v.1.15,2013-05-25 13:12:00,
2013-05-25 09:18:00,48.4,39.8,30.34,NW,314,6.0,14.0,72,0.00,,,0.00,654,Wunderground v.1.15,2013-05-25 13:18:00,
2013-05-25 09:23:00,48.6,38.9,30.34,West,275,7.0,10.0,69,0.00,,,0.00,677,Wunderground v.1.15,2013-05-25 13:23:00,
2013-05-25 09:28:00,49.0,40.0,30.34,ESE,121,5.0,10.0,71,0.00,,,0.00,670,Wunderground v.1.15,2013-05-25 13:28:00,
2013-05-25 09:34:00,49.4,41.1,30.34,SSW,206,3.0,11.0,73,0.00,,,0.00,742,Wunderground v.1.15,2013-05-25 13:34:00,
2013-05-25 09:39:00,49.7,39.9,30.34,North,360,3.0,11.0,69,0.00,,,0.00,749,Wunderground v.1.15,2013-05-25 13:39:00,
2013-05-25 09:44:00,49.2,39.8,30.33,SSE,153,5.0,13.0,70,0.00,,,0.00,775,Wunderground v.1.15,2013-05-25 13:44:00,
2013-05-25 09:49:00,49.3,40.7,30.33,ESE,105,6.0,13.0,72,0.00,,,0.00,729,Wunderground v.1.15,2013-05-25 13:49:00,
2013-05-25 09:55:00,50.1,40.3,30.34,NW,325,6.0,12.0,69,0.00,,,0.00,703,Wunderground v.1.15,2013-05-25 13:55:00,
2013-05-25 10:00:00,50.4,41.3,30.34,North,360,5.0,5.0,71,0.00,,,0.00,733,Wunderground v.1.15,2013-05-25 14:00:00,
2013-05-25 10:06:00,50.2,40.4,30.33,ESE,112,3.0,5.0,69,0.00,,,0.00,749,Wunderground v.1.15,2013-05-25 14:06:00,
2013-05-25 10:11:00,50.6,40.8,30.34,NNE,22,3.0,6.0,69,0.00,,,0.00,779,Wunderground v.1.15,2013-05-25 14:11:00,
2013-05-25 10:17:00,50.8,39.8,30.34,North,360,5.0,6.0,66,0.00,,,0.00,788,Wunderground v.1.15,2013-05-25 14:17:00,
2013-05-25 10:22:00,51.1,40.9,30.34,NNW,339,8.0,18.0,68,0.00,,,0.00,786,Wunderground v.1.15,2013-05-25 14:22:00,
2013-05-25 10:27:00,50.9,40.7,30.34,North,360,12.0,21.0,68,0.00,,,0.00,809,Wunderground v.1.15,2013-05-25 14:27:00,
2013-05-25 10:32:00,51.0,40.4,30.34,NW,309,13.0,27.0,67,0.00,,,0.00,826,Wunderground v.1.15,2013-05-25 14:32:00,
2013-05-25 10:38:00,51.1,41.3,30.34,WSW,253,15.0,27.0,69,0.00,,,0.00,835,Wunderground v.1.15,2013-05-25 14:38:00,
2013-05-25 10:43:00,51.8,41.9,30.34,NW,306,12.0,20.0,69,0.00,,,0.00,844,Wunderground v.1.15,2013-05-25 14:43:00,
2013-05-25 10:48:00,51.9,40.1,30.34,NW,314,14.0,26.0,64,0.00,,,0.00,853,Wunderground v.1.15,2013-05-25 14:48:00,
2013-05-25 10:54:00,51.7,40.3,30.34,WNW,286,17.0,17.0,65,0.00,,,0.00,867,Wunderground v.1.15,2013-05-25 14:54:00,
2013-05-25 10:59:00,51.8,40.8,30.35,NW,316,15.0,21.0,66,0.00,,,0.00,881,Wunderground v.1.15,2013-05-25 14:59:00,
2013-05-25 11:05:00,52.0,40.6,30.35,WNW,290,14.0,23.0,65,0.00,,,0.00,886,Wunderground v.1.15,2013-05-25 15:05:00,
2013-05-25 11:10:00,52.6,41.2,30.35,NNW,344,12.0,12.0,65,0.00,,,0.00,907,Wunderground v.1.15,2013-05-25 15:10:00,
2013-05-25 11:15:00,52.9,41.0,30.36,North,360,10.0,12.0,64,0.00,,,0.00,916,Wunderground v.1.15,2013-05-25 15:15:00,
2013-05-25 11:20:00,53.2,40.9,30.36,NW,316,9.0,9.0,63,0.00,,,0.00,904,Wunderground v.1.15,2013-05-25 15:20:00,
2013-05-25 11:26:00,53.5,40.8,30.36,NNW,345,11.0,21.0,62,0.00,,,0.00,962,Wunderground v.1.15,2013-05-25 15:26:00,
2013-05-25 11:31:00,53.8,41.9,30.35,West,260,9.0,9.0,64,0.00,,,0.00,919,Wunderground v.1.15,2013-05-25 15:31:00,
2013-05-25 11:36:00,54.7,41.5,30.35,NW,311,9.0,14.0,61,0.00,,,0.00,925,Wunderground v.1.15,2013-05-25 15:36:00,
2013-05-25 11:42:00,55.1,41.0,30.35,North,360,11.0,12.0,59,0.00,,,0.00,940,Wunderground v.1.15,2013-05-25 15:42:00,
2013-05-25 11:47:00,55.5,43.1,30.35,NW,320,7.0,12.0,63,0.00,,,0.00,933,Wunderground v.1.15,2013-05-25 15:47:00,
2013-05-25 11:52:00,55.5,42.3,30.34,North,350,7.0,12.0,61,0.00,,,0.00,958,Wunderground v.1.15,2013-05-25 15:52:00,
2013-05-25 16:36:00,61.4,42.6,30.28,WNW,296,12.0,12.0,50,0.00,,,0.00,693,Wunderground v.1.15,2013-05-25 20:36:00,
2013-05-25 16:42:00,61.8,43.0,30.28,North,360,12.0,13.0,50,0.00,,,0.00,668,Wunderground v.1.15,2013-05-25 20:42:00,
2013-05-25 16:48:00,62.1,42.7,30.28,North,360,9.0,9.0,49,0.00,,,0.00,677,Wunderground v.1.15,2013-05-25 20:48:00,
2013-05-25 16:53:00,62.0,42.1,30.28,WNW,284,9.0,17.0,48,0.00,,,0.00,636,Wunderground v.1.15,2013-05-25 20:53:00,
2013-05-25 16:58:00,61.8,44.0,30.28,NW,319,10.0,18.0,52,0.00,,,0.00,142,Wunderground v.1.15,2013-05-25 20:58:00,
2013-05-25 17:04:00,61.1,42.3,30.28,West,271,11.0,12.0,50,0.00,,,0.00,207,Wunderground v.1.15,2013-05-25 21:04:00,
2013-05-25 17:10:00,61.1,42.3,30.28,NW,306,8.0,15.0,50,0.00,,,0.00,123,Wunderground v.1.15,2013-05-25 21:10:00,
2013-05-25 17:15:00,60.6,41.8,30.28,North,9,9.0,15.0,50,0.00,,,0.00,118,Wunderground v.1.15,2013-05-25 21:15:00,
2013-05-25 17:20:00,60.4,42.2,30.28,WNW,293,9.0,9.0,51,0.00,,,0.00,192,Wunderground v.1.15,2013-05-25 21:20:00,
2013-05-25 17:25:00,60.5,41.2,30.27,North,360,9.0,23.0,49,0.00,,,0.00,125,Wunderground v.1.15,2013-05-25 21:25:00,
2013-05-25 17:31:00,60.3,42.1,30.27,NW,318,11.0,14.0,51,0.00,,,0.00,118,Wunderground v.1.15,2013-05-25 21:31:00,
2013-05-25 17:36:00,60.1,41.9,30.27,North,360,10.0,14.0,51,0.00,,,0.00,107,Wunderground v.1.15,2013-05-25 21:36:00,
2013-05-25 17:42:00,60.1,41.9,30.27,NW,306,11.0,18.0,51,0.00,,,0.00,478,Wunderground v.1.15,2013-05-25 21:42:00,
2013-05-25 17:47:00,60.4,42.7,30.27,NW,317,9.0,18.0,52,0.00,,,0.00,104,Wunderground v.1.15,2013-05-25 21:47:00,
2013-05-25 17:52:00,60.4,41.7,30.27,WNW,294,8.0,8.0,50,0.00,,,0.00,396,Wunderground v.1.15,2013-05-25 21:52:00,
2013-05-25 17:57:00,61.0,42.7,30.26,North,360,9.0,17.0,51,0.00,,,0.00,443,Wunderground v.1.15,2013-05-25 21:57:00,
2013-05-25 18:03:00,61.0,41.7,30.27,North,360,9.0,10.0,49,0.00,,,0.00,193,Wunderground v.1.15,2013-05-25 22:03:00,
2013-05-25 18:09:00,60.8,41.5,30.27,North,360,9.0,13.0,49,0.00,,,0.00,67,Wunderground v.1.15,2013-05-25 22:09:00,
2013-05-25 18:14:00,60.9,41.6,30.26,West,277,10.0,17.0,49,0.00,,,0.00,79,Wunderground v.1.15,2013-05-25 22:14:00,
2013-05-25 18:19:00,60.7,41.9,30.26,North,360,9.0,17.0,50,0.00,,,0.00,65,Wunderground v.1.15,2013-05-25 22:19:00,
2013-05-25 18:25:00,60.4,41.1,30.26,NW,317,12.0,23.0,49,0.00,,,0.00,345,Wunderground v.1.15,2013-05-25 22:25:00,
2013-05-25 18:30:00,60.7,41.4,30.26,NW,312,11.0,12.0,49,0.00,,,0.00,306,Wunderground v.1.15,2013-05-25 22:30:00,
2013-05-25 18:35:00,60.7,41.9,30.26,NW,315,9.0,13.0,50,0.00,,,0.00,225,Wunderground v.1.15,2013-05-25 22:35:00,
2013-05-25 18:41:00,60.6,42.4,30.26,North,360,8.0,13.0,51,0.00,,,0.00,281,Wunderground v.1.15,2013-05-25 22:41:00,
2013-05-25 18:46:00,60.5,42.3,30.27,West,277,8.0,19.0,51,0.00,,,0.00,104,Wunderground v.1.15,2013-05-25 22:46:00,
2013-05-25 18:51:00,60.3,41.0,30.26,NW,315,10.0,12.0,49,0.00,,,0.00,97,Wunderground v.1.15,2013-05-25 22:51:00,
2013-05-25 18:57:00,60.1,41.9,30.26,NW,317,10.0,17.0,51,0.00,,,0.00,160,Wunderground v.1.15,2013-05-25 22:57:00,
2013-05-25 19:03:00,60.0,40.8,30.27,North,360,10.0,19.0,49,0.00,,,0.00,49,Wunderground v.1.15,2013-05-25 23:03:00,
2013-05-25 19:08:00,60.0,41.3,30.27,North,360,11.0,19.0,50,0.00,,,0.00,51,Wunderground v.1.15,2013-05-25 23:08:00,
2013-05-25 19:13:00,59.9,41.2,30.27,NW,311,11.0,16.0,50,0.00,,,0.00,46,Wunderground v.1.15,2013-05-25 23:13:00,
2013-05-25 19:19:00,59.8,41.6,30.27,West,273,11.0,18.0,51,0.00,,,0.00,42,Wunderground v.1.15,2013-05-25 23:19:00,
2013-05-25 19:24:00,59.6,41.9,30.27,WNW,285,11.0,14.0,52,0.00,,,0.00,44,Wunderground v.1.15,2013-05-25 23:24:00,
2013-05-25 19:29:00,59.5,41.3,30.27,WSW,249,9.0,14.0,51,0.00,,,0.00,39,Wunderground v.1.15,2013-05-25 23:29:00,
2013-05-25 19:35:00,59.3,41.7,30.27,NW,317,6.0,9.0,52,0.00,,,0.00,30,Wunderground v.1.15,2013-05-25 23:35:00,
2013-05-25 19:40:00,59.1,42.0,30.27,North,5,8.0,15.0,53,0.00,,,0.00,25,Wunderground v.1.15,2013-05-25 23:40:00,
2013-05-25 19:45:00,58.9,41.3,30.27,NW,310,9.0,15.0,52,0.00,,,0.00,26,Wunderground v.1.15,2013-05-25 23:45:00,
2013-05-25 19:51:00,58.7,42.6,30.27,NW,309,6.0,7.0,55,0.00,,,0.00,28,Wunderground v.1.15,2013-05-25 23:51:00,
2013-05-25 19:56:00,58.4,42.3,30.27,WNW,294,3.0,7.0,55,0.00,,,0.00,21,Wunderground v.1.15,2013-05-25 23:56:00,
2013-05-25 20:02:00,58.1,42.5,30.27,North,360,5.0,8.0,56,0.00,,,0.00,16,Wunderground v.1.15,2013-05-26 00:02:00,
2013-05-25 20:07:00,57.9,41.8,30.27,NNW,334,5.0,8.0,55,0.00,,,0.00,14,Wunderground v.1.15,2013-05-26 00:07:00,
2013-05-25 20:12:00,57.6,41.5,30.27,NW,321,5.0,6.0,55,0.00,,,0.00,12,Wunderground v.1.15,2013-05-26 00:12:00,
2013-05-25 20:18:00,57.5,41.4,30.27,WNW,300,6.0,11.0,55,0.00,,,0.00,9,Wunderground v.1.15,2013-05-26 00:18:00,
2013-05-25 20:23:00,57.4,41.4,30.27,North,360,6.0,10.0,55,0.00,,,0.00,7,Wunderground v.1.15,2013-05-26 00:23:00,
2013-05-25 20:29:00,57.2,42.1,30.27,WNW,299,5.0,10.0,57,0.00,,,0.00,5,Wunderground v.1.15,2013-05-26 00:29:00,
2013-05-25 20:34:00,56.9,42.3,30.27,NW,315,4.0,8.0,58,0.00,,,0.00,0,Wunderground v.1.15,2013-05-26 00:34:00,
2013-05-25 20:39:00,56.6,41.5,30.26,West,266,4.0,8.0,57,0.00,,,0.00,0,Wunderground v.1.15,2013-05-26 00:39:00,
2013-05-25 20:44:00,56.3,41.7,30.26,NW,306,5.0,9.0,58,0.00,,,0.00,0,Wunderground v.1.15,2013-05-26 00:44:00,
2013-05-25 20:50:00,56.0,41.9,30.26,NW,308,4.0,4.0,59,0.00,,,0.00,0,Wunderground v.1.15,2013-05-26 00:50:00,
2013-05-25 20:55:00,55.5,42.7,30.26,West,281,2.0,4.0,62,0.00,,,0.00,0,Wunderground v.1.15,2013-05-26 00:55:00,
2013-05-25 21:00:00,55.3,42.5,30.26,North,355,2.0,2.0,62,0.00,,,0.00,0,Wunderground v.1.15,2013-05-26 01:00:00,
2013-05-25 21:06:00,54.7,42.8,30.26,North,360,2.0,11.0,64,0.00,,,0.00,0,Wunderground v.1.15,2013-05-26 01:06:00,
2013-05-25 21:11:00,54.5,40.9,30.27,NNW,342,2.0,5.0,60,0.00,,,0.00,0,Wunderground v.1.15,2013-05-26 01:11:00,
2013-05-25 21:16:00,54.7,41.1,30.27,ESE,107,2.0,5.0,60,0.00,,,0.00,0,Wunderground v.1.15,2013-05-26 01:16:00,
2013-05-25 21:21:00,54.5,42.6,30.27,South,184,1.0,2.0,64,0.00,,,0.00,0,Wunderground v.1.15,2013-05-26 01:21:00,
2013-05-25 21:26:00,54.0,40.8,30.27,SE,131,1.0,3.0,61,0.00,,,0.00,0,Wunderground v.1.15,2013-05-26 01:26:00,
2013-05-25 21:32:00,53.6,42.9,30.28,SSE,165,2.0,3.0,67,0.00,,,0.00,0,Wunderground v.1.15,2013-05-26 01:32:00,
2013-05-25 21:37:00,53.1,42.8,30.28,NNE,22,1.0,3.0,68,0.00,,,0.00,0,Wunderground v.1.15,2013-05-26 01:37:00,
2013-05-25 21:42:00,52.7,42.4,30.28,NW,319,1.0,3.0,68,0.00,,,0.00,0,Wunderground v.1.15,2013-05-26 01:42:00,
2013-05-25 21:48:00,52.2,41.2,30.28,NE,48,2.0,6.0,66,0.00,,,0.00,0,Wunderground v.1.15,2013-05-26 01:48:00,
2013-05-25 21:53:00,52.3,41.7,30.29,NNE,32,2.0,2.0,67,0.00,,,0.00,0,Wunderground v.1.15,2013-05-26 01:53:00,
2013-05-25 21:59:00,52.2,42.3,30.29,NNE,13,2.0,4.0,69,0.00,,,0.00,0,Wunderground v.1.15,2013-05-26 01:59:00,
2013-05-25 22:04:00,52.3,40.9,30.29,North,11,3.0,7.0,65,0.00,,,0.00,0,Wunderground v.1.15,2013-05-26 02:04:00,
2013-05-25 22:10:00,52.6,39.9,30.29,NE,49,4.0,4.0,62,0.00,,,0.00,0,Wunderground v.1.15,2013-05-26 02:10:00,
2013-05-25 22:15:00,52.7,41.7,30.29,NE,46,2.0,4.0,66,0.00,,,0.00,0,Wunderground v.1.15,2013-05-26 02:15:00,
2013-05-25 22:20:00,52.2,41.6,30.29,ESE,117,0.0,1.0,67,0.00,,,0.00,0,Wunderground v.1.15,2013-05-26 02:20:00,
2013-05-25 22:26:00,51.7,41.9,30.29,ESE,123,0.0,2.0,69,0.00,,,0.00,0,Wunderground v.1.15,2013-05-26 02:26:00,
2013-05-25 22:31:00,51.1,42.0,30.29,WSW,246,1.0,3.0,71,0.00,,,0.00,0,Wunderground v.1.15,2013-05-26 02:31:00,
2013-05-25 22:36:00,50.5,41.8,30.30,NW,304,2.0,5.0,72,0.00,,,0.00,0,Wunderground v.1.15,2013-05-26 02:36:00,
2013-05-25 22:42:00,50.0,41.0,30.29,NW,308,2.0,3.0,71,0.00,,,0.00,0,Wunderground v.1.15,2013-05-26 02:42:00,
2013-05-25 22:47:00,49.9,40.9,30.29,SSW,213,2.0,3.0,71,0.00,,,0.00,0,Wunderground v.1.15,2013-05-26 02:47:00,
2013-05-25 22:52:00,49.9,41.6,30.30,WNW,290,2.0,3.0,73,0.00,,,0.00,0,Wunderground v.1.15,2013-05-26 02:52:00,
2013-05-25 22:58:00,50.3,40.5,30.30,ENE,69,3.0,5.0,69,0.00,,,0.00,0,Wunderground v.1.15,2013-05-26 02:58:00,
2013-05-25 23:04:00,50.4,41.7,30.29,NE,38,1.0,4.0,72,0.00,,,0.00,0,Wunderground v.1.15,2013-05-26 03:04:00,
2013-05-25 23:09:00,50.4,39.5,30.30,NNE,12,3.0,8.0,66,0.00,,,0.00,0,Wunderground v.1.15,2013-05-26 03:09:00,
2013-05-25 23:14:00,50.8,39.1,30.30,NE,35,6.0,11.0,64,0.00,,,0.00,0,Wunderground v.1.15,2013-05-26 03:14:00,
2013-05-25 23:19:00,51.4,40.0,30.30,North,11,5.0,11.0,65,0.00,,,0.00,0,Wunderground v.1.15,2013-05-26 03:19:00,
2013-05-25 23:25:00,51.4,40.0,30.30,NW,309,3.0,10.0,65,0.00,,,0.00,0,Wunderground v.1.15,2013-05-26 03:25:00,
2013-05-25 23:30:00,51.5,39.7,30.30,NNE,19,5.0,5.0,64,0.00,,,0.00,0,Wunderground v.1.15,2013-05-26 03:30:00,
2013-05-25 23:35:00,51.7,39.1,30.30,NE,50,6.0,11.0,62,0.00,,,0.00,0,Wunderground v.1.15,2013-05-26 03:35:00,
2013-05-25 23:41:00,52.0,39.0,30.30,NNE,32,5.0,5.0,61,0.00,,,0.00,0,Wunderground v.1.15,2013-05-26 03:41:00,
2013-05-25 23:46:00,51.9,39.3,30.30,NE,37,3.0,5.0,62,0.00,,,0.00,0,Wunderground v.1.15,2013-05-26 03:46:00,
2013-05-25 23:52:00,51.9,38.9,30.30,NNW,346,4.0,6.0,61,0.00,,,0.00,0,Wunderground v.1.15,2013-05-26 03:52:00,
2013-05-25 23:57:00,51.8,39.6,30.30,North,9,4.0,6.0,63,0.00,,,0.00,0,Wunderground v.1.15,2013-05-26 03:57:00,